sensor_id;sensor_type;location;lat;lon;timestamp;pressure;altitude;pressure_sealevel;temperature;humidity
24422;BME280;12600;53.326;-6.298;2023-04-28T00:02:21;100339.41;;;13.88;82.22
24422;BME280;12600;53.326;-6.298;2023-04-28T00:05:11;100343.28;;;13.87;82.64
24422;BME280;12600;53.326;-6.298;2023-04-28T00:08:01;100341.69;;;13.86;82.48
24422;BME280;12600;53.326;-6.298;2023-04-28T00:10:51;100333.34;;;13.83;82.38
24422;BME280;12600;53.326;-6.298;2023-04-28T00:13:40;100329.91;;;13.86;82.21
24422;BME280;12600;53.326;-6.298;2023-04-28T00:16:29;100329.91;;;13.86;82.33
24422;BME280;12600;53.326;-6.298;2023-04-28T00:19:19;100334.59;;;13.85;82.24
24422;BME280;12600;53.326;-6.298;2023-04-28T00:22:10;100324.94;;;13.79;82.12
24422;BME280;12600;53.326;-6.298;2023-04-28T00:25:00;100334.81;;;13.80;82.05
24422;BME280;12600;53.326;-6.298;2023-04-28T00:27:50;100338.69;;;13.79;82.53
24422;BME280;12600;53.326;-6.298;2023-04-28T00:30:39;100329.31;;;13.80;82.21
24422;BME280;12600;53.326;-6.298;2023-04-28T00:33:28;100333.19;;;13.79;82.74
24422;BME280;12600;53.326;-6.298;2023-04-28T00:36:17;100327.03;;;13.82;82.34
24422;BME280;12600;53.326;-6.298;2023-04-28T00:39:08;100331.38;;;13.83;82.47
24422;BME280;12600;53.326;-6.298;2023-04-28T00:41:58;100331.38;;;13.83;82.51
24422;BME280;12600;53.326;-6.298;2023-04-28T00:44:47;100332.97;;;13.84;82.70
24422;BME280;12600;53.326;-6.298;2023-04-28T00:47:37;100340.09;;;13.85;82.53
24422;BME280;12600;53.326;-6.298;2023-04-28T00:50:26;100326.91;;;13.79;82.34
24422;BME280;12600;53.326;-6.298;2023-04-28T00:53:16;100334.47;;;13.82;82.24
24422;BME280;12600;53.326;-6.298;2023-04-28T00:56:07;100337.34;;;13.85;82.30
24422;BME280;12600;53.326;-6.298;2023-04-28T00:58:57;100337.34;;;13.85;82.22
24422;BME280;12600;53.326;-6.298;2023-04-28T01:01:46;100344.78;;;13.85;82.27
24422;BME280;12600;53.326;-6.298;2023-04-28T01:04:36;100351.53;;;13.87;81.92
24422;BME280;12600;53.326;-6.298;2023-04-28T01:07:26;100347.66;;;13.88;82.22
24422;BME280;12600;53.326;-6.298;2023-04-28T01:10:15;100350.25;;;13.85;82.32
24422;BME280;12600;53.326;-6.298;2023-04-28T01:13:06;100348.31;;;13.85;82.43
24422;BME280;12600;53.326;-6.298;2023-04-28T01:15:56;100355.75;;;13.85;82.23
24422;BME280;12600;53.326;-6.298;2023-04-28T01:18:47;100358.97;;;13.87;82.38
24422;BME280;12600;53.326;-6.298;2023-04-28T01:21:36;100364.44;;;13.87;82.20
24422;BME280;12600;53.326;-6.298;2023-04-28T01:24:46;100362.50;;;13.87;82.54
24422;BME280;12600;53.326;-6.298;2023-04-28T01:27:35;100362.03;;;13.85;82.24
24422;BME280;12600;53.326;-6.298;2023-04-28T01:30:25;100358.41;;;13.93;82.16
24422;BME280;12600;53.326;-6.298;2023-04-28T01:33:14;100361.63;;;13.95;82.01
24422;BME280;12600;53.326;-6.298;2023-04-28T01:36:05;100371.00;;;13.94;82.07
24422;BME280;12600;53.326;-6.298;2023-04-28T01:38:55;100352.81;;;13.90;82.45
24422;BME280;12600;53.326;-6.298;2023-04-28T01:41:45;100366.66;;;13.93;82.37
24422;BME280;12600;53.326;-6.298;2023-04-28T01:44:35;100367.00;;;13.92;82.34
24422;BME280;12600;53.326;-6.298;2023-04-28T01:47:25;100367.00;;;13.92;82.43
24422;BME280;12600;53.326;-6.298;2023-04-28T01:50:14;100373.63;;;13.91;82.25
24422;BME280;12600;53.326;-6.298;2023-04-28T01:53:03;100389.31;;;13.90;82.67
24422;BME280;12600;53.326;-6.298;2023-04-28T01:55:53;100396.41;;;13.91;82.82
24422;BME280;12600;53.326;-6.298;2023-04-28T01:58:44;100385.75;;;13.90;82.59
24422;BME280;12600;53.326;-6.298;2023-04-28T02:01:33;100379.47;;;13.89;82.63
24422;BME280;12600;53.326;-6.298;2023-04-28T02:04:22;100387.16;;;13.96;82.84
24422;BME280;12600;53.326;-6.298;2023-04-28T02:07:12;100389.34;;;14.03;82.57
24422;BME280;12600;53.326;-6.298;2023-04-28T02:10:01;100382.72;;;14.04;82.71
24422;BME280;12600;53.326;-6.298;2023-04-28T02:12:51;100396.91;;;14.06;82.37
24422;BME280;12600;53.326;-6.298;2023-04-28T02:15:42;100393.72;;;14.04;82.27
24422;BME280;12600;53.326;-6.298;2023-04-28T02:18:32;100402.41;;;14.06;82.54
24422;BME280;12600;53.326;-6.298;2023-04-28T02:21:23;100407.69;;;14.11;82.16
24422;BME280;12600;53.326;-6.298;2023-04-28T02:24:13;100405.28;;;14.09;82.29
24422;BME280;12600;53.326;-6.298;2023-04-28T02:27:03;100411.13;;;14.08;82.14
24422;BME280;12600;53.326;-6.298;2023-04-28T02:29:53;100417.88;;;14.10;82.51
24422;BME280;12600;53.326;-6.298;2023-04-28T02:32:43;100393.91;;;13.98;82.07
24422;BME280;12600;53.326;-6.298;2023-04-28T02:35:36;100412.72;;;14.09;82.27
24422;BME280;12600;53.326;-6.298;2023-04-28T02:38:25;100413.88;;;14.08;82.28
24422;BME280;12600;53.326;-6.298;2023-04-28T02:41:15;100418.91;;;14.06;82.07
24422;BME280;12600;53.326;-6.298;2023-04-28T02:44:04;100420.84;;;14.05;82.52
24422;BME280;12600;53.326;-6.298;2023-04-28T02:46:53;100425.53;;;14.05;82.69
24422;BME280;12600;53.326;-6.298;2023-04-28T02:49:47;100429.44;;;14.04;82.58
24422;BME280;12600;53.326;-6.298;2023-04-28T02:52:37;100424.72;;;14.04;82.62
24422;BME280;12600;53.326;-6.298;2023-04-28T02:55:26;100429.75;;;14.02;82.84
24422;BME280;12600;53.326;-6.298;2023-04-28T02:58:17;100430.28;;;13.95;82.60
24422;BME280;12600;53.326;-6.298;2023-04-28T03:01:06;100433.38;;;13.94;82.81
24422;BME280;12600;53.326;-6.298;2023-04-28T03:03:56;100432.91;;;13.92;83.05
24422;BME280;12600;53.326;-6.298;2023-04-28T03:06:47;100435.19;;;13.90;83.36
24422;BME280;12600;53.326;-6.298;2023-04-28T03:09:36;100442.16;;;13.87;83.57
24422;BME280;12600;53.326;-6.298;2023-04-28T03:12:28;100438.13;;;13.85;83.50
24422;BME280;12600;53.326;-6.298;2023-04-28T03:15:18;100433.78;;;13.84;83.63
24422;BME280;12600;53.326;-6.298;2023-04-28T03:18:07;100435.75;;;13.83;83.56
24422;BME280;12600;53.326;-6.298;2023-04-28T03:20:56;100428.97;;;13.81;83.54
24422;BME280;12600;53.326;-6.298;2023-04-28T03:23:49;100435.63;;;13.80;83.52
24422;BME280;12600;53.326;-6.298;2023-04-28T03:26:38;100439.47;;;13.79;83.12
24422;BME280;12600;53.326;-6.298;2023-04-28T03:29:28;100438.91;;;13.73;83.54
24422;BME280;12600;53.326;-6.298;2023-04-28T03:32:18;100442.56;;;13.77;83.27
24422;BME280;12600;53.326;-6.298;2023-04-28T03:35:08;100445.19;;;13.74;83.57
24422;BME280;12600;53.326;-6.298;2023-04-28T03:37:59;100459.03;;;13.77;83.77
24422;BME280;12600;53.326;-6.298;2023-04-28T03:40:50;100461.44;;;13.79;83.72
24422;BME280;12600;53.326;-6.298;2023-04-28T03:43:51;100465.47;;;13.81;83.67
24422;BME280;12600;53.326;-6.298;2023-04-28T03:46:49;100469.84;;;13.82;83.76
24422;BME280;12600;53.326;-6.298;2023-04-28T03:49:39;100464.34;;;13.82;83.44
24422;BME280;12600;53.326;-6.298;2023-04-28T03:52:28;100461.59;;;13.82;83.66
24422;BME280;12600;53.326;-6.298;2023-04-28T03:55:17;100470.28;;;13.84;83.35
24422;BME280;12600;53.326;-6.298;2023-04-28T03:58:08;100477.72;;;13.84;83.57
24422;BME280;12600;53.326;-6.298;2023-04-28T04:00:58;100472.69;;;13.86;83.51
24422;BME280;12600;53.326;-6.298;2023-04-28T04:03:47;100458.03;;;13.82;83.57
24422;BME280;12600;53.326;-6.298;2023-04-28T04:06:38;100468.69;;;13.83;83.58
24422;BME280;12600;53.326;-6.298;2023-04-28T04:09:28;100463.59;;;13.73;83.61
24422;BME280;12600;53.326;-6.298;2023-04-28T04:12:19;100474.06;;;13.80;84.20
24422;BME280;12600;53.326;-6.298;2023-04-28T04:15:10;100473.78;;;13.73;84.38
24422;BME280;12600;53.326;-6.298;2023-04-28T04:18:02;100480.88;;;13.74;84.51
24422;BME280;12600;53.326;-6.298;2023-04-28T04:21:07;100470.88;;;13.69;84.66
24422;BME280;12600;53.326;-6.298;2023-04-28T04:23:56;100469.63;;;13.66;84.60
24422;BME280;12600;53.326;-6.298;2023-04-28T04:26:45;100480.72;;;13.70;84.34
24422;BME280;12600;53.326;-6.298;2023-04-28T04:29:52;100478.13;;;13.74;84.20
24422;BME280;12600;53.326;-6.298;2023-04-28T04:32:43;100478.66;;;13.67;84.43
24422;BME280;12600;53.326;-6.298;2023-04-28T04:35:32;100485.09;;;13.71;84.90
24422;BME280;12600;53.326;-6.298;2023-04-28T04:38:22;100482.34;;;13.71;84.64
24422;BME280;12600;53.326;-6.298;2023-04-28T04:41:12;100485.91;;;13.71;84.16
24422;BME280;12600;53.326;-6.298;2023-04-28T04:44:02;100484.34;;;13.62;84.36
24422;BME280;12600;53.326;-6.298;2023-04-28T04:46:59;100492.72;;;13.65;84.70
24422;BME280;12600;53.326;-6.298;2023-04-28T04:49:51;100468.78;;;13.45;84.67
24422;BME280;12600;53.326;-6.298;2023-04-28T04:52:41;100501.88;;;13.49;85.05
24422;BME280;12600;53.326;-6.298;2023-04-28T04:55:31;100494.47;;;13.49;85.04
24422;BME280;12600;53.326;-6.298;2023-04-28T04:58:20;100497.53;;;13.48;85.18
24422;BME280;12600;53.326;-6.298;2023-04-28T05:01:28;100497.19;;;13.49;85.07
24422;BME280;12600;53.326;-6.298;2023-04-28T05:04:18;100508.97;;;13.50;84.85
24422;BME280;12600;53.326;-6.298;2023-04-28T05:07:09;100513.66;;;13.49;85.17
24422;BME280;12600;53.326;-6.298;2023-04-28T05:10:00;100520.41;;;13.52;85.08
24422;BME280;12600;53.326;-6.298;2023-04-28T05:12:50;100519.28;;;13.53;85.12
24422;BME280;12600;53.326;-6.298;2023-04-28T05:15:40;100522.03;;;13.53;85.01
24422;BME280;12600;53.326;-6.298;2023-04-28T05:18:49;100518.63;;;13.56;85.27
24422;BME280;12600;53.326;-6.298;2023-04-28T05:21:39;100526.88;;;13.56;85.24
24422;BME280;12600;53.326;-6.298;2023-04-28T05:24:30;100523.28;;;13.55;85.40
24422;BME280;12600;53.326;-6.298;2023-04-28T05:27:19;100532.81;;;13.58;85.06
24422;BME280;12600;53.326;-6.298;2023-04-28T05:30:09;100534.44;;;13.59;85.71
24422;BME280;12600;53.326;-6.298;2023-04-28T05:32:59;100531.88;;;13.54;85.51
24422;BME280;12600;53.326;-6.298;2023-04-28T05:35:49;100538.16;;;13.54;85.15
24422;BME280;12600;53.326;-6.298;2023-04-28T05:38:38;100553.66;;;13.59;85.85
24422;BME280;12600;53.326;-6.298;2023-04-28T05:41:30;100549.28;;;13.58;85.68
24422;BME280;12600;53.326;-6.298;2023-04-28T05:44:19;100529.97;;;13.46;85.87
24422;BME280;12600;53.326;-6.298;2023-04-28T05:47:09;100554.91;;;13.61;85.56
24422;BME280;12600;53.326;-6.298;2023-04-28T05:49:58;100561.03;;;13.67;85.57
24422;BME280;12600;53.326;-6.298;2023-04-28T05:52:48;100569.41;;;13.70;85.78
24422;BME280;12600;53.326;-6.298;2023-04-28T05:55:38;100565.19;;;13.73;85.99
24422;BME280;12600;53.326;-6.298;2023-04-28T05:58:30;100572.91;;;13.80;86.00
24422;BME280;12600;53.326;-6.298;2023-04-28T06:01:21;100559.84;;;13.77;85.96
24422;BME280;12600;53.326;-6.298;2023-04-28T06:04:10;100570.75;;;13.85;85.87
24422;BME280;12600;53.326;-6.298;2023-04-28T06:07:00;100576.06;;;13.90;85.97
24422;BME280;12600;53.326;-6.298;2023-04-28T06:09:50;100577.50;;;13.96;85.87
24422;BME280;12600;53.326;-6.298;2023-04-28T06:12:40;100560.84;;;13.93;86.04
24422;BME280;12600;53.326;-6.298;2023-04-28T06:15:30;100571.66;;;13.98;85.92
24422;BME280;12600;53.326;-6.298;2023-04-28T06:18:20;100595.63;;;14.10;86.06
24422;BME280;12600;53.326;-6.298;2023-04-28T06:21:11;100596.78;;;14.09;86.24
24422;BME280;12600;53.326;-6.298;2023-04-28T06:24:01;100591.28;;;14.09;86.10
24422;BME280;12600;53.326;-6.298;2023-04-28T06:26:51;100599.06;;;14.07;86.00
24422;BME280;12600;53.326;-6.298;2023-04-28T06:29:40;100598.25;;;14.06;86.09
24422;BME280;12600;53.326;-6.298;2023-04-28T06:32:31;100600.78;;;14.11;86.10
24422;BME280;12600;53.326;-6.298;2023-04-28T06:35:22;100594.03;;;14.09;85.96
24422;BME280;12600;53.326;-6.298;2023-04-28T06:38:11;100598.38;;;14.10;85.92
24422;BME280;12600;53.326;-6.298;2023-04-28T06:41:01;100614.81;;;14.18;86.50
24422;BME280;12600;53.326;-6.298;2023-04-28T06:43:51;100615.31;;;14.20;86.00
24422;BME280;12600;53.326;-6.298;2023-04-28T06:46:45;100616.09;;;14.21;85.83
24422;BME280;12600;53.326;-6.298;2023-04-28T06:49:36;100624.94;;;14.26;85.91
24422;BME280;12600;53.326;-6.298;2023-04-28T06:52:25;100620.13;;;14.23;86.16
24422;BME280;12600;53.326;-6.298;2023-04-28T06:55:26;100618.78;;;14.30;86.18
24422;BME280;12600;53.326;-6.298;2023-04-28T06:58:18;100633.72;;;14.41;85.93
24422;BME280;12600;53.326;-6.298;2023-04-28T07:01:08;100634.16;;;14.51;86.59
24422;BME280;12600;53.326;-6.298;2023-04-28T07:03:57;100631.66;;;14.59;86.55
24422;BME280;12600;53.326;-6.298;2023-04-28T07:06:48;100650.66;;;14.72;85.95
24422;BME280;12600;53.326;-6.298;2023-04-28T07:09:38;100650.56;;;14.81;85.83
24422;BME280;12600;53.326;-6.298;2023-04-28T07:12:27;100648.69;;;14.94;86.26
24422;BME280;12600;53.326;-6.298;2023-04-28T07:15:17;100654.97;;;14.94;85.60
24422;BME280;12600;53.326;-6.298;2023-04-28T07:18:06;100654.44;;;15.01;85.40
24422;BME280;12600;53.326;-6.298;2023-04-28T07:20:55;100656.50;;;15.04;85.27
24422;BME280;12600;53.326;-6.298;2023-04-28T07:23:46;100656.84;;;15.02;85.15
24422;BME280;12600;53.326;-6.298;2023-04-28T07:26:36;100660.94;;;14.96;85.22
24422;BME280;12600;53.326;-6.298;2023-04-28T07:29:25;100673.09;;;14.95;85.41
24422;BME280;12600;53.326;-6.298;2023-04-28T07:32:16;100675.38;;;14.93;85.41
24422;BME280;12600;53.326;-6.298;2023-04-28T07:35:07;100680.63;;;14.86;85.42
24422;BME280;12600;53.326;-6.298;2023-04-28T07:37:56;100678.53;;;14.83;85.89
24422;BME280;12600;53.326;-6.298;2023-04-28T07:40:47;100682.66;;;14.77;85.76
24422;BME280;12600;53.326;-6.298;2023-04-28T07:43:41;100689.06;;;14.81;86.15
24422;BME280;12600;53.326;-6.298;2023-04-28T07:46:31;100699.16;;;14.77;86.28
24422;BME280;12600;53.326;-6.298;2023-04-28T07:49:21;100702.22;;;14.75;86.58
24422;BME280;12600;53.326;-6.298;2023-04-28T07:52:10;100709.19;;;14.73;86.60
24422;BME280;12600;53.326;-6.298;2023-04-28T07:55:00;100705.19;;;14.70;86.59
24422;BME280;12600;53.326;-6.298;2023-04-28T07:57:52;100717.00;;;14.71;86.75
24422;BME280;12600;53.326;-6.298;2023-04-28T08:00:42;100707.78;;;14.67;86.86
24422;BME280;12600;53.326;-6.298;2023-04-28T08:03:31;100725.50;;;14.78;86.89
24422;BME280;12600;53.326;-6.298;2023-04-28T08:06:21;100725.78;;;14.85;87.35
24422;BME280;12600;53.326;-6.298;2023-04-28T08:09:10;100720.56;;;14.92;87.46
24422;BME280;12600;53.326;-6.298;2023-04-28T08:12:00;100727.44;;;14.98;87.07
24422;BME280;12600;53.326;-6.298;2023-04-28T08:14:51;100733.09;;;15.02;87.87
24422;BME280;12600;53.326;-6.298;2023-04-28T08:17:40;100731.59;;;15.04;87.58
24422;BME280;12600;53.326;-6.298;2023-04-28T08:20:29;100740.56;;;15.14;87.35
24422;BME280;12600;53.326;-6.298;2023-04-28T08:23:19;100730.03;;;15.16;87.44
24422;BME280;12600;53.326;-6.298;2023-04-28T08:26:09;100740.56;;;15.14;87.71
24422;BME280;12600;53.326;-6.298;2023-04-28T08:28:58;100743.78;;;15.16;87.40
24422;BME280;12600;53.326;-6.298;2023-04-28T08:31:49;100741.03;;;15.16;87.43
24422;BME280;12600;53.326;-6.298;2023-04-28T08:34:38;100752.66;;;15.21;87.48
24422;BME280;12600;53.326;-6.298;2023-04-28T08:37:28;100750.97;;;15.29;87.71
24422;BME280;12600;53.326;-6.298;2023-04-28T08:40:17;100752.16;;;15.40;87.98
24422;BME280;12600;53.326;-6.298;2023-04-28T08:43:07;100755.88;;;15.56;88.31
24422;BME280;12600;53.326;-6.298;2023-04-28T08:45:57;100758.00;;;15.72;87.72
24422;BME280;12600;53.326;-6.298;2023-04-28T08:48:49;100749.28;;;15.70;87.01
24422;BME280;12600;53.326;-6.298;2023-04-28T08:51:44;100753.44;;;15.76;87.04
24422;BME280;12600;53.326;-6.298;2023-04-28T08:54:35;100759.41;;;15.78;86.84
24422;BME280;12600;53.326;-6.298;2023-04-28T08:57:26;100751.72;;;15.83;86.50
24422;BME280;12600;53.326;-6.298;2023-04-28T09:00:17;100760.22;;;16.03;87.29
24422;BME280;12600;53.326;-6.298;2023-04-28T09:03:06;100769.78;;;16.17;86.46
24422;BME280;12600;53.326;-6.298;2023-04-28T09:05:57;100769.66;;;16.26;85.96
24422;BME280;12600;53.326;-6.298;2023-04-28T09:08:47;100777.38;;;16.45;86.72
24422;BME280;12600;53.326;-6.298;2023-04-28T09:11:50;100770.13;;;16.53;84.99
24422;BME280;12600;53.326;-6.298;2023-04-28T09:14:40;100782.38;;;16.67;84.71
24422;BME280;12600;53.326;-6.298;2023-04-28T09:17:30;100790.03;;;16.70;84.18
24422;BME280;12600;53.326;-6.298;2023-04-28T09:20:20;100786.91;;;16.72;84.40
24422;BME280;12600;53.326;-6.298;2023-04-28T09:23:16;100783.78;;;16.49;82.80
24422;BME280;12600;53.326;-6.298;2023-04-28T09:26:06;100785.75;;;16.48;83.51
24422;BME280;12600;53.326;-6.298;2023-04-28T09:29:11;100780.94;;;16.45;83.24
24422;BME280;12600;53.326;-6.298;2023-04-28T09:32:14;100782.63;;;16.50;83.82
24422;BME280;12600;53.326;-6.298;2023-04-28T09:35:04;100796.88;;;16.64;83.97
24422;BME280;12600;53.326;-6.298;2023-04-28T09:37:57;100793.00;;;16.77;83.49
24422;BME280;12600;53.326;-6.298;2023-04-28T09:40:57;100799.06;;;16.83;82.37
24422;BME280;12600;53.326;-6.298;2023-04-28T09:43:47;100800.78;;;16.88;82.80
24422;BME280;12600;53.326;-6.298;2023-04-28T09:46:36;100806.97;;;16.97;82.94
24422;BME280;12600;53.326;-6.298;2023-04-28T09:49:25;100800.31;;;16.98;83.16
24422;BME280;12600;53.326;-6.298;2023-04-28T09:52:14;100805.59;;;16.91;82.22
24422;BME280;12600;53.326;-6.298;2023-04-28T09:55:06;100807.69;;;16.94;81.80
24422;BME280;12600;53.326;-6.298;2023-04-28T09:57:59;100811.19;;;17.19;82.51
24422;BME280;12600;53.326;-6.298;2023-04-28T10:00:53;100799.13;;;17.39;82.35
24422;BME280;12600;53.326;-6.298;2023-04-28T10:03:43;100804.91;;;17.62;80.94
24422;BME280;12600;53.326;-6.298;2023-04-28T10:06:34;100813.19;;;17.62;78.67
24422;BME280;12600;53.326;-6.298;2023-04-28T10:09:24;100830.50;;;17.59;77.70
24422;BME280;12600;53.326;-6.298;2023-04-28T10:12:15;100816.47;;;17.52;77.98
24422;BME280;12600;53.326;-6.298;2023-04-28T10:15:10;100824.47;;;17.41;77.04
24422;BME280;12600;53.326;-6.298;2023-04-28T10:18:02;100817.53;;;17.07;76.37
24422;BME280;12600;53.326;-6.298;2023-04-28T10:20:57;100826.94;;;17.18;77.63
24422;BME280;12600;53.326;-6.298;2023-04-28T10:24:08;100838.66;;;17.27;77.75
24422;BME280;12600;53.326;-6.298;2023-04-28T10:27:05;100839.09;;;17.29;77.92
24422;BME280;12600;53.326;-6.298;2023-04-28T10:30:11;100827.41;;;17.08;76.82
24422;BME280;12600;53.326;-6.298;2023-04-28T10:33:24;100849.25;;;17.25;77.18
24422;BME280;12600;53.326;-6.298;2023-04-28T10:36:46;100841.56;;;17.19;76.70
24422;BME280;12600;53.326;-6.298;2023-04-28T10:39:37;100848.31;;;17.33;76.88
24422;BME280;12600;53.326;-6.298;2023-04-28T10:42:52;100859.25;;;17.30;75.21
24422;BME280;12600;53.326;-6.298;2023-04-28T10:46:07;100861.63;;;17.44;76.23
24422;BME280;12600;53.326;-6.298;2023-04-28T10:48:57;100855.75;;;17.45;76.00
24422;BME280;12600;53.326;-6.298;2023-04-28T10:51:46;100858.16;;;17.47;75.94
24422;BME280;12600;53.326;-6.298;2023-04-28T10:54:36;100856.25;;;17.35;75.81
24422;BME280;12600;53.326;-6.298;2023-04-28T10:57:25;100866.03;;;17.32;75.78
24422;BME280;12600;53.326;-6.298;2023-04-28T11:00:28;100868.72;;;17.17;75.51
24422;BME280;12600;53.326;-6.298;2023-04-28T11:03:48;100874.03;;;17.10;75.96
24422;BME280;12600;53.326;-6.298;2023-04-28T11:06:40;100882.19;;;17.06;75.64
24422;BME280;12600;53.326;-6.298;2023-04-28T11:09:57;100874.59;;;17.03;74.87
24422;BME280;12600;53.326;-6.298;2023-04-28T11:13:25;100872.75;;;17.07;74.05
24422;BME280;12600;53.326;-6.298;2023-04-28T11:16:18;100885.03;;;17.22;74.38
24422;BME280;12600;53.326;-6.298;2023-04-28T11:19:11;100884.31;;;17.37;73.96
24422;BME280;12600;53.326;-6.298;2023-04-28T11:22:04;100870.63;;;17.41;72.55
24422;BME280;12600;53.326;-6.298;2023-04-28T11:25:00;100880.44;;;17.66;72.28
24422;BME280;12600;53.326;-6.298;2023-04-28T11:27:51;100884.06;;;17.82;72.06
24422;BME280;12600;53.326;-6.298;2023-04-28T11:30:41;100889.81;;;17.89;70.19
24422;BME280;12600;53.326;-6.298;2023-04-28T11:33:30;100887.88;;;18.06;69.98
24422;BME280;12600;53.326;-6.298;2023-04-28T11:36:28;100888.16;;;18.16;69.76
24422;BME280;12600;53.326;-6.298;2023-04-28T11:39:25;100893.25;;;18.30;66.53
24422;BME280;12600;53.326;-6.298;2023-04-28T11:42:16;100889.59;;;18.42;67.74
24422;BME280;12600;53.326;-6.298;2023-04-28T11:45:07;100899.50;;;18.59;67.43
24422;BME280;12600;53.326;-6.298;2023-04-28T11:48:00;100899.78;;;18.54;67.02
24422;BME280;12600;53.326;-6.298;2023-04-28T11:50:53;100902.56;;;18.54;67.35
24422;BME280;12600;53.326;-6.298;2023-04-28T11:53:44;100904.53;;;18.37;67.16
24422;BME280;12600;53.326;-6.298;2023-04-28T11:56:37;100904.81;;;18.20;68.02
24422;BME280;12600;53.326;-6.298;2023-04-28T11:59:28;100904.31;;;18.14;68.43
24422;BME280;12600;53.326;-6.298;2023-04-28T12:02:25;100916.84;;;18.12;67.85
24422;BME280;12600;53.326;-6.298;2023-04-28T12:05:17;100912.00;;;18.21;67.82
24422;BME280;12600;53.326;-6.298;2023-04-28T12:08:08;100908.59;;;18.43;68.39
24422;BME280;12600;53.326;-6.298;2023-04-28T12:11:08;100920.03;;;18.58;66.83
24422;BME280;12600;53.326;-6.298;2023-04-28T12:14:04;100926.94;;;18.80;66.93
24422;BME280;12600;53.326;-6.298;2023-04-28T12:16:54;100926.78;;;18.72;64.99
24422;BME280;12600;53.326;-6.298;2023-04-28T12:19:45;100925.03;;;18.99;65.83
24422;BME280;12600;53.326;-6.298;2023-04-28T12:22:43;100913.56;;;19.17;64.97
24422;BME280;12600;53.326;-6.298;2023-04-28T12:25:44;100936.38;;;19.45;64.53
24422;BME280;12600;53.326;-6.298;2023-04-28T12:28:40;100934.78;;;19.44;62.90
24422;BME280;12600;53.326;-6.298;2023-04-28T12:31:29;100937.28;;;19.49;63.27
24422;BME280;12600;53.326;-6.298;2023-04-28T12:34:19;100940.22;;;19.41;62.42
24422;BME280;12600;53.326;-6.298;2023-04-28T12:37:09;100938.84;;;19.31;62.84
24422;BME280;12600;53.326;-6.298;2023-04-28T12:39:59;100936.72;;;19.09;62.96
24422;BME280;12600;53.326;-6.298;2023-04-28T12:42:49;100933.06;;;19.20;63.52
24422;BME280;12600;53.326;-6.298;2023-04-28T12:45:40;100933.69;;;19.14;62.96
24422;BME280;12600;53.326;-6.298;2023-04-28T12:48:30;100952.63;;;19.27;62.82
24422;BME280;12600;53.326;-6.298;2023-04-28T12:51:19;100948.53;;;19.41;63.12
24422;BME280;12600;53.326;-6.298;2023-04-28T12:54:08;100948.91;;;19.39;62.80
24422;BME280;12600;53.326;-6.298;2023-04-28T12:56:58;100951.84;;;19.46;62.46
24422;BME280;12600;53.326;-6.298;2023-04-28T12:59:47;100958.81;;;19.40;61.42
24422;BME280;12600;53.326;-6.298;2023-04-28T13:02:40;100954.38;;;19.36;61.41
24422;BME280;12600;53.326;-6.298;2023-04-28T13:05:30;100949.84;;;19.27;61.53
24422;BME280;12600;53.326;-6.298;2023-04-28T13:08:21;100963.81;;;18.99;61.66
24422;BME280;12600;53.326;-6.298;2023-04-28T13:11:11;100964.38;;;18.89;62.22
24422;BME280;12600;53.326;-6.298;2023-04-28T13:14:09;100965.78;;;18.83;62.60
24422;BME280;12600;53.326;-6.298;2023-04-28T13:16:59;100966.41;;;18.77;62.92
24422;BME280;12600;53.326;-6.298;2023-04-28T13:19:51;100958.97;;;18.65;63.24
24422;BME280;12600;53.326;-6.298;2023-04-28T13:22:41;100969.72;;;18.66;63.38
24422;BME280;12600;53.326;-6.298;2023-04-28T13:25:30;100973.38;;;18.70;63.62
24422;BME280;12600;53.326;-6.298;2023-04-28T13:28:19;100978.38;;;18.81;63.75
24422;BME280;12600;53.326;-6.298;2023-04-28T13:31:09;100973.66;;;18.97;63.81
24422;BME280;12600;53.326;-6.298;2023-04-28T13:33:58;100977.44;;;19.24;64.17
24422;BME280;12600;53.326;-6.298;2023-04-28T13:36:51;100974.19;;;19.53;63.56
24422;BME280;12600;53.326;-6.298;2023-04-28T13:39:41;100973.09;;;19.74;62.51
24422;BME280;12600;53.326;-6.298;2023-04-28T13:42:30;100981.03;;;19.95;61.94
24422;BME280;12600;53.326;-6.298;2023-04-28T13:45:20;100983.75;;;19.91;60.44
24422;BME280;12600;53.326;-6.298;2023-04-28T13:48:09;100984.47;;;19.88;60.41
24422;BME280;12600;53.326;-6.298;2023-04-28T13:50:59;100981.41;;;19.93;59.29
24422;BME280;12600;53.326;-6.298;2023-04-28T13:53:49;100981.13;;;19.98;58.99
24422;BME280;12600;53.326;-6.298;2023-04-28T13:56:39;100989.28;;;20.10;58.66
24422;BME280;12600;53.326;-6.298;2023-04-28T13:59:28;100989.22;;;20.07;57.93
24422;BME280;12600;53.326;-6.298;2023-04-28T14:02:17;100978.34;;;20.18;57.50
24422;BME280;12600;53.326;-6.298;2023-04-28T14:05:08;100977.50;;;20.36;58.34
24422;BME280;12600;53.326;-6.298;2023-04-28T14:07:57;100970.22;;;20.48;58.34
24422;BME280;12600;53.326;-6.298;2023-04-28T14:10:50;100958.81;;;20.76;58.11
24422;BME280;12600;53.326;-6.298;2023-04-28T14:13:39;100977.66;;;21.12;56.77
24422;BME280;12600;53.326;-6.298;2023-04-28T14:16:29;100987.19;;;21.11;53.52
24422;BME280;12600;53.326;-6.298;2023-04-28T14:19:19;100979.22;;;21.10;54.46
24422;BME280;12600;53.326;-6.298;2023-04-28T14:22:09;100990.16;;;20.99;54.37
24422;BME280;12600;53.326;-6.298;2023-04-28T14:24:58;100987.69;;;20.94;54.32
24422;BME280;12600;53.326;-6.298;2023-04-28T14:27:50;100980.28;;;20.79;54.38
24422;BME280;12600;53.326;-6.298;2023-04-28T14:30:39;100987.75;;;20.75;54.77
24422;BME280;12600;53.326;-6.298;2023-04-28T14:33:29;100987.94;;;20.62;55.10
24422;BME280;12600;53.326;-6.298;2023-04-28T14:36:18;100987.59;;;20.45;55.51
24422;BME280;12600;53.326;-6.298;2023-04-28T14:39:07;100968.19;;;20.25;56.82
24422;BME280;12600;53.326;-6.298;2023-04-28T14:41:57;100981.19;;;20.21;56.21
24422;BME280;12600;53.326;-6.298;2023-04-28T14:44:47;100984.69;;;20.18;55.68
24422;BME280;12600;53.326;-6.298;2023-04-28T14:47:39;100996.44;;;20.11;55.12